Time;durP1;ratioP1;P1;durP2;ratioP2;P2;SDS_P1;SDS_P2;PMS_P1;PMS_P2;Temp;Humidity;BMP_temperature;BMP_pressure;BME280_temperature;BME280_humidity;BME280_pressure;Samples;Min_cycle;Max_cycle;Signal;HPM_P1;HPM_P2
2022/09/09 00:02:17;;;;;;;0.82;0.10;;;26.10;48.40;;;;;;5047894;28;20405;-52
2022/09/09 00:04:52;;;;;;;1.00;0.10;;;26.10;48.40;;;;;;5047328;28;20068;-53
2022/09/09 00:07:24;;;;;;;0.80;0.10;;;26.10;48.40;;;;;;5047838;28;20069;-53
2022/09/09 00:10:00;;;;;;;2.03;1.00;;;26.10;48.40;;;;;;5052771;28;20353;-53
2022/09/09 00:12:33;;;;;;;;;;;26.10;48.40;;;;;;5033642;28;20103;-50
2022/09/09 00:15:03;;;;;;;2.17;0.10;;;26.10;49.00;;;;;;5047574;28;19947;-51
2022/09/09 00:17:39;;;;;;;5.07;0.15;;;26.00;48.40;;;;;;5047233;28;20048;-51
2022/09/09 00:20:12;;;;;;;;;;;26.10;48.30;;;;;;5048083;28;20045;-50
2022/09/09 00:22:45;;;;;;;2.50;0.10;;;26.00;48.30;;;;;;5041573;28;19924;-52
2022/09/09 00:25:16;;;;;;;2.42;0.65;;;26.00;48.40;;;;;;5048249;28;20049;-53
2022/09/09 00:27:48;;;;;;;2.40;0.20;;;26.00;48.60;;;;;;5047651;28;20044;-50
2022/09/09 00:30:19;;;;;;;1.45;0.32;;;26.00;48.70;;;;;;5047568;28;20414;-51
2022/09/09 00:32:47;;;;;;;5.50;0.30;;;26.00;48.60;;;;;;5047041;28;20040;-53
2022/09/09 00:35:23;;;;;;;0.22;0.00;;;26.00;48.60;;;;;;5048487;28;20402;-51
2022/09/09 00:37:54;;;;;;;2.05;0.10;;;26.00;48.60;;;;;;5047322;28;20429;-54
2022/09/09 00:40:29;;;;;;;2.05;0.10;;;26.00;49.00;;;;;;5052075;28;20149;-50
2022/09/09 00:43:18;;;;;;;1.05;0.10;;;26.00;48.40;;;;;;5048337;28;20055;-55
2022/09/09 00:46:02;;;;;;;1.60;0.35;;;26.00;48.20;;;;;;5043269;28;20041;-54
2022/09/09 00:48:39;;;;;;;3.15;0.55;;;26.00;48.10;;;;;;5029128;28;20045;-51
2022/09/09 00:51:11;;;;;;;0.95;0.30;;;26.00;48.00;;;;;;5047137;28;20754;-53
2022/09/09 00:53:53;;;;;;;1.27;0.08;;;26.00;48.00;;;;;;5030622;28;20037;-50
2022/09/09 00:56:25;;;;;;;1.13;0.10;;;26.00;47.90;;;;;;5047455;28;20053;-51
2022/09/09 00:59:01;;;;;;;1.20;0.15;;;26.00;48.40;;;;;;5049881;28;20141;-54
2022/09/09 01:01:28;;;;;;;0.85;0.20;;;26.00;47.80;;;;;;5044239;28;20041;-53
2022/09/09 01:03:59;;;;;;;2.40;0.13;;;26.00;47.70;;;;;;5026348;28;20045;-51
2022/09/09 01:06:31;;;;;;;0.40;0.10;;;26.00;47.80;;;;;;5049330;28;20047;-52
2022/09/09 01:09:08;;;;;;;2.05;0.10;;;26.00;47.90;;;;;;5049197;28;20033;-51
2022/09/09 01:11:45;;;;;;;2.03;0.10;;;26.00;47.90;;;;;;5051029;28;20048;-52
2022/09/09 01:14:28;;;;;;;3.03;0.10;;;26.00;47.90;;;;;;5032567;28;20056;-50
2022/09/09 01:16:57;;;;;;;2.05;0.52;;;26.00;47.80;;;;;;5050337;28;20518;-54
2022/09/09 01:19:36;;;;;;;0.93;0.10;;;25.90;47.80;;;;;;5031694;28;20119;-54
2022/09/09 01:22:12;;;;;;;0.68;0.20;;;26.00;47.90;;;;;;5051147;28;20464;-51
2022/09/09 01:24:49;;;;;;;1.85;0.45;;;25.90;47.80;;;;;;5033298;28;20053;-54
2022/09/09 01:27:24;;;;;;;3.85;0.30;;;25.90;47.90;;;;;;5038094;28;20052;-55
2022/09/09 01:29:52;;;;;;;1.10;0.10;;;25.90;48.50;;;;;;5032674;28;20585;-51
2022/09/09 01:32:43;;;;;;;0.93;0.10;;;25.90;47.90;;;;;;5019810;28;20056;-53
2022/09/09 01:35:20;;;;;;;0.47;0.10;;;26.00;47.90;;;;;;5029131;28;20103;-53
2022/09/09 01:37:47;;;;;;;1.98;0.30;;;25.90;47.90;;;;;;5050806;28;20134;-53
2022/09/09 01:40:14;;;;;;;1.45;0.10;;;25.90;47.90;;;;;;5016075;28;20030;-54
2022/09/09 01:42:43;;;;;;;1.15;0.10;;;25.90;47.80;;;;;;5029185;28;20053;-53
2022/09/09 01:45:10;;;;;;;1.83;0.10;;;25.90;47.80;;;;;;5029528;28;20057;-54
2022/09/09 01:47:38;;;;;;;0.73;0.55;;;25.90;47.90;;;;;;5049910;28;20136;-54
2022/09/09 01:50:18;;;;;;;1.17;0.03;;;25.90;47.80;;;;;;5032051;28;20041;-54
2022/09/09 01:52:49;;;;;;;1.13;0.10;;;25.90;47.70;;;;;;5014199;28;20054;-54
2022/09/09 01:59:04;;;;;;;0.65;0.43;;;25.90;47.60;;;;;;5002058;28;20661;-55
2022/09/09 02:01:48;;;;;;;1.30;0.20;;;25.90;47.60;;;;;;4984528;28;20526;-53
2022/09/09 02:04:28;;;;;;;1.92;0.17;;;25.90;47.60;;;;;;4980289;28;20570;-55
2022/09/09 02:06:57;;;;;;;2.13;0.17;;;25.90;47.60;;;;;;4990656;28;20104;-54
2022/09/09 02:09:30;;;;;;;0.85;0.10;;;25.80;47.50;;;;;;4995714;28;20072;-54
2022/09/09 02:12:07;;;;;;;3.20;0.50;;;25.90;47.50;;;;;;5009632;28;20041;-55
2022/09/09 02:14:46;;;;;;;2.85;0.10;;;25.90;47.50;;;;;;4965385;28;20092;-52
2022/09/09 02:17:18;;;;;;;2.63;0.10;;;25.90;47.60;;;;;;5026866;28;20041;-54
2022/09/09 02:20:15;;;;;;;3.28;0.13;;;25.90;47.60;;;;;;5035187;28;20220;-53
2022/09/09 02:22:58;;;;;;;1.00;0.10;;;25.80;47.50;;;;;;5031793;28;20183;-55
2022/09/09 02:25:30;;;;;;;2.28;0.65;;;25.80;47.50;;;;;;5036983;28;20102;-53
2022/09/09 02:28:07;;;;;;;0.95;0.10;;;25.90;47.60;;;;;;5032877;28;20041;-53
2022/09/09 02:30:38;;;;;;;1.30;0.57;;;25.80;47.50;;;;;;5031549;28;20153;-53
2022/09/09 02:33:09;;;;;;;5.28;0.45;;;25.90;47.60;;;;;;5004333;28;20510;-53
2022/09/09 02:35:49;;;;;;;0.70;0.10;;;25.80;47.60;;;;;;5030651;28;20064;-54
2022/09/09 02:38:23;;;;;;;2.38;0.10;;;25.90;47.80;;;;;;5050971;28;20521;-55
2022/09/09 02:40:58;;;;;;;1.38;0.10;;;25.80;48.40;;;;;;5034019;28;20041;-53
2022/09/09 02:43:25;;;;;;;4.32;0.10;;;25.80;47.80;;;;;;5030565;28;20079;-54
2022/09/09 02:46:04;;;;;;;2.78;0.20;;;25.80;47.80;;;;;;5049271;28;20045;-52
2022/09/09 02:48:38;;;;;;;0.98;0.10;;;25.80;47.80;;;;;;5037584;28;20429;-53
2022/09/09 02:51:12;;;;;;;1.38;0.10;;;25.80;47.80;;;;;;5026181;28;20041;-50
2022/09/09 02:53:45;;;;;;;4.35;0.30;;;25.80;47.80;;;;;;5032088;28;20036;-53
2022/09/09 02:56:17;;;;;;;0.98;0.10;;;25.80;47.80;;;;;;5026542;28;20571;-52
2022/09/09 02:58:49;;;;;;;0.63;0.10;;;25.80;47.80;;;;;;5021452;28;20365;-54
2022/09/09 03:01:18;;;;;;;0.80;0.10;;;25.80;47.80;;;;;;5027367;28;20549;-55
2022/09/09 03:03:46;;;;;;;5.97;1.80;;;25.80;47.80;;;;;;5038826;28;20151;-54
2022/09/09 03:06:16;;;;;;;5.38;0.57;;;25.80;47.80;;;;;;5024341;28;20041;-53
2022/09/09 03:08:49;;;;;;;0.68;0.10;;;25.80;47.80;;;;;;5040681;28;20053;-52
2022/09/09 03:11:19;;;;;;;1.33;0.10;;;25.80;47.80;;;;;;5031678;28;20506;-53
2022/09/09 03:13:46;;;;;;;2.92;0.10;;;25.80;47.70;;;;;;5031238;28;20045;-48
2022/09/09 03:16:14;;;;;;;1.00;0.20;;;25.80;47.70;;;;;;5030358;28;20042;-50
2022/09/09 03:18:46;;;;;;;2.15;0.10;;;25.80;47.70;;;;;;5028735;28;20494;-52
2022/09/09 03:21:14;;;;;;;0.95;0.30;;;25.80;47.60;;;;;;5027762;28;20042;-53
2022/09/09 03:23:42;;;;;;;0.68;0.10;;;25.80;47.70;;;;;;5027187;28;20041;-53
2022/09/09 03:26:09;;;;;;;2.00;0.30;;;25.80;47.60;;;;;;5026528;28;20041;-51
2022/09/09 03:28:43;;;;;;;2.58;0.10;;;25.80;47.60;;;;;;5024041;28;20050;-53
2022/09/09 03:31:11;;;;;;;0.90;0.10;;;25.80;47.60;;;;;;5024499;28;20037;-53
2022/09/09 03:33:43;;;;;;;2.47;0.10;;;25.80;47.50;;;;;;5027059;28;20040;-55
2022/09/09 03:36:15;;;;;;;1.85;0.20;;;25.80;47.50;;;;;;5040050;28;20116;-53
2022/09/09 03:38:42;;;;;;;2.10;0.10;;;25.80;47.50;;;;;;5043528;28;20077;-54
2022/09/09 03:41:09;;;;;;;1.60;0.10;;;25.80;47.50;;;;;;5042849;28;20087;-53
2022/09/09 03:43:37;;;;;;;4.30;0.17;;;25.80;47.50;;;;;;5028396;28;20046;-54
2022/09/09 03:46:05;;;;;;;2.63;0.10;;;25.80;47.50;;;;;;5034798;28;20124;-52
2022/09/09 03:48:32;;;;;;;6.30;0.50;;;25.80;47.60;;;;;;5027132;28;20077;-54
2022/09/09 03:51:01;;;;;;;0.90;0.20;;;25.80;47.60;;;;;;5027840;28;20517;-50
2022/09/09 03:53:30;;;;;;;5.63;0.30;;;25.80;47.60;;;;;;5026447;28;20044;-55
2022/09/09 03:55:59;;;;;;;2.80;0.10;;;25.80;47.60;;;;;;5029914;28;20064;-54
2022/09/09 03:58:28;;;;;;;1.42;0.52;;;25.80;47.60;;;;;;5027967;28;20053;-53
2022/09/09 04:01:03;;;;;;;3.22;0.10;;;25.80;47.60;;;;;;5026418;28;20042;-54
2022/09/09 04:03:30;;;;;;;3.42;0.10;;;25.70;47.60;;;;;;5027432;28;20521;-56
2022/09/09 04:06:00;;;;;;;3.30;0.10;;;25.70;47.60;;;;;;5020106;28;20055;-51
2022/09/09 04:08:31;;;;;;;1.77;0.10;;;25.70;47.70;;;;;;5025516;28;20117;-52
2022/09/09 04:11:02;;;;;;;0.60;0.00;;;25.80;47.70;;;;;;5031570;28;20033;-53
2022/09/09 04:13:30;;;;;;;3.15;0.10;;;25.70;48.20;;;;;;5026950;28;20406;-50
2022/09/09 04:15:59;;;;;;;1.00;0.25;;;25.70;47.60;;;;;;5029135;28;20048;-53
2022/09/09 04:18:27;;;;;;;2.30;0.10;;;25.70;47.70;;;;;;5027745;28;20123;-54
2022/09/09 04:20:56;;;;;;;2.15;0.10;;;25.70;48.20;;;;;;5025028;28;20553;-51
2022/09/09 04:23:27;;;;;;;3.03;0.55;;;25.80;47.70;;;;;;5022277;28;20059;-51
2022/09/09 04:25:57;;;;;;;3.95;0.30;;;25.80;47.70;;;;;;5038618;28;20194;-51
2022/09/09 04:28:27;;;;;;;3.72;0.47;;;25.80;47.60;;;;;;5026437;28;20422;-52
2022/09/09 04:30:55;;;;;;;3.25;0.13;;;25.70;47.60;;;;;;5027407;28;20049;-49
2022/09/09 04:33:22;;;;;;;2.05;0.10;;;25.70;47.60;;;;;;5044366;28;20120;-51
2022/09/09 04:35:53;;;;;;;2.80;0.10;;;25.70;48.20;;;;;;5036302;28;20513;-51
2022/09/09 04:38:23;;;;;;;3.55;0.52;;;25.70;47.60;;;;;;5028825;28;20120;-50
2022/09/09 04:40:53;;;;;;;1.80;0.50;;;25.70;47.60;;;;;;5046199;28;20040;-53
2022/09/09 04:43:23;;;;;;;1.02;0.10;;;25.70;47.60;;;;;;5029972;28;20056;-51
2022/09/09 04:45:52;;;;;;;1.00;0.38;;;25.70;47.70;;;;;;5043786;28;20049;-53
2022/09/09 04:48:22;;;;;;;3.40;0.10;;;25.70;47.70;;;;;;5042018;28;20132;-51
2022/09/09 04:50:57;;;;;;;1.65;0.10;;;25.70;47.70;;;;;;5029641;28;20722;-52
2022/09/09 04:53:26;;;;;;;0.88;0.10;;;25.70;47.60;;;;;;5022900;28;20052;-54
2022/09/09 04:55:54;;;;;;;1.10;0.10;;;25.70;47.70;;;;;;5035879;28;20053;-52
2022/09/09 04:58:23;;;;;;;1.70;0.10;;;25.70;47.60;;;;;;5039767;28;20045;-51
2022/09/09 05:00:51;;;;;;;2.72;0.52;;;25.70;47.70;;;;;;5039179;28;20038;-50
2022/09/09 05:03:19;;;;;;;2.72;0.10;;;25.70;47.70;;;;;;5036132;28;20099;-50
2022/09/09 05:05:47;;;;;;;2.30;0.35;;;25.70;48.30;;;;;;5013901;28;20489;-53
2022/09/09 05:08:14;;;;;;;1.50;0.10;;;25.70;47.70;;;;;;5034757;28;20486;-54
2022/09/09 05:10:42;;;;;;;2.65;0.00;;;25.60;47.70;;;;;;5037533;28;20091;-54
2022/09/09 05:13:09;;;;;;;1.40;0.22;;;25.60;48.30;;;;;;5033914;28;20040;-51
2022/09/09 05:15:38;;;;;;;5.50;1.38;;;25.60;47.80;;;;;;5038161;28;20049;-51
2022/09/09 05:18:05;;;;;;;4.15;0.30;;;25.60;47.80;;;;;;5029894;28;20076;-53
2022/09/09 05:20:33;;;;;;;0.57;0.00;;;25.60;47.90;;;;;;5035740;28;20046;-52
2022/09/09 05:23:02;;;;;;;2.67;0.20;;;25.60;47.90;;;;;;5039404;28;20055;-54
2022/09/09 05:25:31;;;;;;;2.10;0.10;;;25.60;47.90;;;;;;5028746;28;20056;-55
2022/09/09 05:28:00;;;;;;;0.57;0.10;;;25.60;47.90;;;;;;5039390;28;20041;-54
2022/09/09 05:30:28;;;;;;;1.75;0.10;;;25.60;47.90;;;;;;5036224;28;20042;-51
2022/09/09 05:32:58;;;;;;;0.22;0.22;;;25.60;48.00;;;;;;5029700;28;20244;-54
2022/09/09 05:35:25;;;;;;;1.52;0.22;;;25.60;48.00;;;;;;5018146;28;20057;-54
2022/09/09 05:37:52;;;;;;;3.13;0.98;;;25.60;48.00;;;;;;5031093;28;20775;-53
2022/09/09 05:40:21;;;;;;;1.05;0.00;;;25.60;48.00;;;;;;5030745;28;20065;-54
2022/09/09 05:42:48;;;;;;;5.18;0.10;;;25.50;48.00;;;;;;5027802;28;20041;-52
2022/09/09 05:45:15;;;;;;;1.88;0.10;;;25.50;48.00;;;;;;5031020;28;20050;-50
2022/09/09 05:47:42;;;;;;;5.18;0.40;;;25.50;48.10;;;;;;5025648;28;20328;-52
2022/09/09 05:50:14;;;;;;;1.48;0.17;;;25.50;48.10;;;;;;5013480;28;20046;-54
2022/09/09 05:52:41;;;;;;;1.58;0.63;;;25.60;48.20;;;;;;5027838;28;20572;-53
2022/09/09 05:55:09;;;;;;;0.65;0.43;;;25.60;48.10;;;;;;5028367;28;20033;-54
2022/09/09 05:57:36;;;;;;;2.28;0.10;;;25.50;48.10;;;;;;5037232;28;20044;-53
2022/09/09 06:00:05;;;;;;;1.00;0.65;;;25.60;48.10;;;;;;5038150;28;20033;-53
2022/09/09 06:02:41;;;;;;;1.20;0.65;;;25.60;48.10;;;;;;5046885;28;20091;-54
2022/09/09 06:05:11;;;;;;;5.68;0.10;;;25.50;48.10;;;;;;5038229;28;20047;-58
2022/09/09 06:07:41;;;;;;;6.45;1.00;;;25.50;48.00;;;;;;5029763;28;20084;-67
2022/09/09 06:10:10;;;;;;;2.88;0.73;;;25.50;48.20;;;;;;5033753;28;20469;-65
2022/09/09 06:12:37;;;;;;;2.65;0.30;;;25.50;48.50;;;;;;5037806;28;20045;-67
2022/09/09 06:15:05;;;;;;;0.90;0.10;;;25.40;48.80;;;;;;5053076;28;20076;-69
2022/09/09 06:17:32;;;;;;;4.88;1.20;;;25.50;49.10;;;;;;5038466;28;20048;-70
2022/09/09 06:19:59;;;;;;;2.28;0.10;;;25.50;49.30;;;;;;5035672;28;20036;-69
2022/09/09 06:22:26;;;;;;;1.05;0.10;;;25.50;49.40;;;;;;5051806;28;20052;-75
2022/09/09 06:24:55;;;;;;;1.65;0.65;;;25.50;49.40;;;;;;5035552;28;20509;-70
2022/09/09 06:27:23;;;;;;;0.55;0.20;;;25.60;49.60;;;;;;5042945;28;20509;-73
2022/09/09 06:29:50;;;;;;;0.77;0.10;;;25.60;49.50;;;;;;5057380;28;20049;-73
2022/09/09 06:32:17;;;;;;;2.53;0.28;;;25.70;49.50;;;;;;5039251;28;20113;-70
2022/09/09 06:34:45;;;;;;;3.10;0.20;;;25.70;49.30;;;;;;5033421;28;20482;-70
2022/09/09 06:37:12;;;;;;;3.05;0.10;;;25.80;49.20;;;;;;5034050;28;20087;-70
2022/09/09 06:39:45;;;;;;;3.03;0.17;;;25.90;49.10;;;;;;5034677;28;20091;-71
2022/09/09 06:42:15;;;;;;;4.93;0.10;;;26.00;49.10;;;;;;5050783;28;20791;-67
2022/09/09 06:44:58;;;;;;;1.67;0.10;;;26.10;48.90;;;;;;5033138;28;20044;-60
2022/09/09 06:47:34;;;;;;;;;;;26.10;48.70;;;;;;5042841;28;20668;-61
2022/09/09 06:50:01;;;;;;;1.13;0.20;;;26.20;48.70;;;;;;5040130;28;19931;-61
2022/09/09 06:52:31;;;;;;;1.52;0.20;;;26.10;48.40;;;;;;5039181;28;20384;-64
2022/09/09 06:54:59;;;;;;;1.80;0.10;;;26.20;48.30;;;;;;5032668;28;20032;-67
2022/09/09 06:57:28;;;;;;;3.03;0.10;;;26.30;48.20;;;;;;5030863;28;20056;-64
2022/09/09 06:59:55;;;;;;;2.25;0.20;;;26.30;48.00;;;;;;5029859;28;20041;-66
2022/09/09 07:02:22;;;;;;;3.80;0.50;;;26.30;48.00;;;;;;5034605;28;20079;-69
2022/09/09 07:04:50;;;;;;;2.10;0.20;;;26.30;47.90;;;;;;5039483;28;20048;-67
2022/09/09 07:07:18;;;;;;;0.43;0.10;;;26.30;47.90;;;;;;5041512;28;20107;-63
2022/09/09 07:09:45;;;;;;;3.97;0.30;;;26.30;47.80;;;;;;5030801;28;20045;-64
2022/09/09 07:12:13;;;;;;;3.20;0.30;;;26.30;47.80;;;;;;5049152;28;20037;-65
2022/09/09 07:14:49;;;;;;;1.07;0.20;;;26.40;47.80;;;;;;5031338;28;20033;-65
2022/09/09 07:17:16;;;;;;;3.85;0.55;;;26.40;47.70;;;;;;5030448;28;20303;-65
2022/09/09 07:19:43;;;;;;;3.28;0.20;;;26.50;47.70;;;;;;5052350;28;20045;-66
2022/09/09 07:22:10;;;;;;;1.50;0.20;;;26.50;47.60;;;;;;5048597;28;20130;-65
2022/09/09 07:24:38;;;;;;;5.78;0.40;;;26.50;47.60;;;;;;5037222;28;20044;-67
2022/09/09 07:27:05;;;;;;;2.38;0.10;;;26.60;47.50;;;;;;5050720;28;20590;-70
2022/09/09 07:29:32;;;;;;;2.75;0.30;;;26.60;47.40;;;;;;5025585;28;20080;-70
2022/09/09 07:32:02;;;;;;;1.42;0.30;;;26.60;47.30;;;;;;5022997;28;20080;-74
2022/09/09 07:34:34;;;;;;;0.13;0.10;;;26.70;47.30;;;;;;5035364;28;20048;-70
2022/09/09 07:37:01;;;;;;;1.40;0.50;;;26.70;47.20;;;;;;5032096;28;20055;-67
2022/09/09 07:39:29;;;;;;;3.97;0.40;;;26.70;47.10;;;;;;5030014;28;20437;-66
2022/09/09 07:41:57;;;;;;;2.17;0.10;;;26.70;47.00;;;;;;5032148;28;20036;-70
2022/09/09 07:44:26;;;;;;;3.22;0.20;;;26.80;47.00;;;;;;5034959;28;20049;-66
2022/09/09 07:47:02;;;;;;;2.50;0.10;;;26.80;47.00;;;;;;5024558;28;20120;-63
2022/09/09 07:49:34;;;;;;;11.05;1.13;;;26.90;47.00;;;;;;5033248;28;20106;-63
2022/09/09 07:52:03;;;;;;;1.35;0.20;;;26.90;47.00;;;;;;5029841;28;20386;-62
2022/09/09 07:54:32;;;;;;;0.90;0.32;;;26.90;46.90;;;;;;5030155;28;20036;-59
2022/09/09 07:57:03;;;;;;;1.63;0.13;;;27.00;46.90;;;;;;5034446;28;20776;-59
2022/09/09 07:59:31;;;;;;;5.00;0.15;;;27.00;46.90;;;;;;5031303;28;20037;-65
2022/09/09 08:02:00;;;;;;;0.50;0.10;;;27.10;47.00;;;;;;5029252;28;20501;-65
2022/09/09 08:04:30;;;;;;;4.10;0.10;;;27.10;47.00;;;;;;5030876;28;20044;-64
2022/09/09 08:06:59;;;;;;;2.72;0.10;;;27.10;47.00;;;;;;5035937;28;20045;-72
2022/09/09 08:09:28;;;;;;;4.20;0.32;;;27.10;47.00;;;;;;5041559;28;20542;-66
2022/09/09 08:12:01;;;;;;;4.70;0.10;;;27.20;47.10;;;;;;5029015;28;20579;-64
2022/09/09 08:14:30;;;;;;;1.83;0.10;;;27.20;47.00;;;;;;5035702;28;20475;-58
2022/09/09 08:16:59;;;;;;;0.70;0.10;;;27.20;46.90;;;;;;5042887;28;20127;-62
2022/09/09 08:19:30;;;;;;;0.52;0.10;;;27.30;46.90;;;;;;5039547;28;20045;-64
2022/09/09 08:21:59;;;;;;;0.20;0.10;;;27.20;46.70;;;;;;5036137;28;20037;-63
2022/09/09 08:24:26;;;;;;;0.47;0.00;;;27.30;46.80;;;;;;5039344;28;20043;-58
2022/09/09 08:26:53;;;;;;;1.35;0.00;;;27.30;46.70;;;;;;5034011;28;20067;-63
2022/09/09 08:29:24;;;;;;;2.83;0.20;;;27.30;46.60;;;;;;5032749;28;20134;-64
2022/09/09 08:31:55;;;;;;;3.10;0.05;;;27.40;46.60;;;;;;5031601;28;20095;-65
2022/09/09 08:34:22;;;;;;;1.00;0.10;;;27.50;46.50;;;;;;5035891;28;20037;-63
2022/09/09 08:36:52;;;;;;;1.75;0.10;;;27.50;46.40;;;;;;5038148;28;20047;-63
2022/09/09 08:39:24;;;;;;;1.63;0.10;;;27.60;46.30;;;;;;5025305;28;20037;-65
2022/09/09 08:42:25;;;;;;;7.05;0.30;;;27.60;46.20;;;;;;5034654;28;20106;-57
2022/09/09 08:45:19;;;;;;;1.52;0.10;;;27.70;46.10;;;;;;5030541;28;20464;-59
2022/09/09 08:48:02;;;;;;;1.35;0.10;;;27.70;46.10;;;;;;5040273;28;20079;-68
2022/09/09 08:50:35;;;;;;;0.75;0.22;;;27.80;46.00;;;;;;5030971;28;20049;-58
2022/09/09 08:53:17;;;;;;;2.03;0.10;;;27.80;45.90;;;;;;5033641;28;20041;-61
2022/09/09 08:55:48;;;;;;;0.60;0.20;;;27.80;45.90;;;;;;5035641;28;20056;-60
2022/09/09 08:58:19;;;;;;;0.82;0.10;;;27.80;45.90;;;;;;5037834;28;20040;-59
2022/09/09 09:01:10;;;;;;;3.10;0.10;;;27.80;46.00;;;;;;5033151;28;20041;-58
2022/09/09 09:03:52;;;;;;;1.10;0.10;;;27.90;45.90;;;;;;5032471;28;20124;-59
2022/09/09 09:06:35;;;;;;;0.93;0.13;;;27.80;45.70;;;;;;5017793;28;20456;-55
2022/09/09 09:09:11;;;;;;;4.20;0.38;;;27.90;45.70;;;;;;5041358;28;20097;-58
2022/09/09 09:11:44;;;;;;;1.27;0.63;;;27.90;45.70;;;;;;5027868;28;20033;-65
2022/09/09 09:14:21;;;;;;;3.53;0.55;;;27.90;45.70;;;;;;5032696;28;20182;-60
2022/09/09 09:16:53;;;;;;;1.05;0.10;;;27.90;45.70;;;;;;5032024;28;20767;-65
2022/09/09 09:19:22;;;;;;;3.10;0.57;;;28.00;45.80;;;;;;5037685;28;20422;-70
2022/09/09 09:21:56;;;;;;;1.50;0.20;;;28.10;45.90;;;;;;5039115;28;20064;-66
2022/09/09 09:24:32;;;;;;;0.40;0.00;;;28.10;45.80;;;;;;5029919;28;20047;-68
2022/09/09 09:27:07;;;;;;;3.47;0.10;;;28.10;45.70;;;;;;5037193;28;20045;-52
2022/09/09 09:29:35;;;;;;;2.17;0.22;;;28.10;45.50;;;;;;5052888;28;20036;-64
2022/09/09 09:32:04;;;;;;;2.13;0.10;;;28.20;45.60;;;;;;5031595;28;20405;-61
2022/09/09 09:34:31;;;;;;;0.10;0.00;;;28.20;45.60;;;;;;5041786;28;20588;-62
2022/09/09 09:37:01;;;;;;;0.45;0.10;;;28.20;45.50;;;;;;5032193;28;20040;-58
2022/09/09 09:39:36;;;;;;;0.30;0.10;;;28.20;45.50;;;;;;5039327;28;20037;-71
2022/09/09 09:42:11;;;;;;;0.57;0.10;;;28.20;45.40;;;;;;5032428;28;20037;-77
2022/09/09 09:44:38;;;;;;;2.47;0.10;;;28.20;45.30;;;;;;5043412;28;20396;-65
2022/09/09 09:47:14;;;;;;;7.05;0.10;;;28.20;45.20;;;;;;5032592;28;20029;-65
2022/09/09 09:49:55;;;;;;;1.70;0.10;;;28.20;45.00;;;;;;5032295;28;20037;-65
2022/09/09 09:52:25;;;;;;;4.20;0.43;;;28.20;44.70;;;;;;5027367;28;20069;-64
2022/09/09 09:54:55;;;;;;;0.98;0.20;;;28.10;44.60;;;;;;5013865;28;20045;-64
2022/09/09 09:57:28;;;;;;;5.15;1.27;;;28.10;44.60;;;;;;5053510;28;20142;-64
2022/09/09 10:00:08;;;;;;;3.65;0.15;;;28.00;44.50;;;;;;5027348;28;20036;-63
2022/09/09 10:02:43;;;;;;;2.03;0.10;;;27.90;44.50;;;;;;5048386;28;20159;-64
2022/09/09 10:05:19;;;;;;;1.33;0.20;;;27.80;44.50;;;;;;5037735;28;20710;-64
2022/09/09 10:08:02;;;;;;;2.65;0.10;;;27.80;44.40;;;;;;5031886;28;20493;-64
2022/09/09 10:10:50;;;;;;;3.63;0.17;;;27.80;44.40;;;;;;5037126;28;20040;-64
2022/09/09 10:13:25;;;;;;;1.05;0.52;;;27.70;44.30;;;;;;5026219;28;20053;-64
2022/09/09 10:16:08;;;;;;;0.25;0.10;;;27.70;44.30;;;;;;5055278;28;20090;-64
2022/09/09 10:18:47;;;;;;;1.90;0.20;;;27.60;44.20;;;;;;5045219;28;20068;-65
2022/09/09 10:21:25;;;;;;;1.58;0.15;;;27.60;44.20;;;;;;5044561;28;20124;-64
2022/09/09 10:24:18;;;;;;;1.02;0.47;;;27.60;44.60;;;;;;5052097;28;20124;-64
2022/09/09 10:26:53;;;;;;;2.28;0.10;;;27.60;45.40;;;;;;4988206;28;20534;-67
2022/09/09 10:29:43;;;;;;;2.55;0.20;;;27.60;45.10;;;;;;4986976;28;20070;-64
2022/09/09 10:32:37;;;;;;;1.17;0.10;;;27.60;45.10;;;;;;4992470;28;20088;-69
2022/09/09 10:35:11;;;;;;;0.13;0.10;;;27.70;45.10;;;;;;4992089;28;20458;-68
2022/09/09 10:37:50;;;;;;;1.98;0.13;;;27.70;45.10;;;;;;4985921;28;20220;-70
2022/09/09 10:40:31;;;;;;;2.05;0.20;;;27.70;45.10;;;;;;4990130;28;20161;-77
2022/09/09 10:43:11;;;;;;;0.45;0.10;;;27.80;45.10;;;;;;4989277;28;20042;-66
2022/09/09 10:45:49;;;;;;;4.18;0.35;;;27.80;45.10;;;;;;4987771;28;20082;-66
2022/09/09 10:48:31;;;;;;;2.67;0.10;;;27.90;45.10;;;;;;4987471;28;20042;-68
2022/09/09 10:51:10;;;;;;;0.80;0.10;;;27.90;44.90;;;;;;4988968;28;20077;-70
2022/09/09 10:53:47;;;;;;;2.30;0.10;;;28.00;44.90;;;;;;4988772;28;20050;-68
2022/09/09 10:56:17;;;;;;;1.88;0.30;;;28.10;45.40;;;;;;4980514;28;20055;-67
2022/09/09 10:58:49;;;;;;;1.85;0.63;;;28.10;44.50;;;;;;4990999;28;20049;-64
2022/09/09 11:01:22;;;;;;;3.10;0.10;;;28.20;44.40;;;;;;4998668;28;20141;-66
2022/09/09 11:03:56;;;;;;;1.10;0.20;;;28.30;44.40;;;;;;5012938;28;20522;-68
2022/09/09 11:06:30;;;;;;;0.40;0.10;;;28.30;45.20;;;;;;5034760;28;20420;-66
2022/09/09 11:09:01;;;;;;;1.27;0.10;;;28.30;44.50;;;;;;5049249;28;20037;-71
2022/09/09 11:11:33;;;;;;;1.30;0.35;;;28.40;44.50;;;;;;5049515;28;20041;-72
2022/09/09 11:14:05;;;;;;;1.90;0.03;;;28.40;45.00;;;;;;5047251;28;20567;-71
2022/09/09 11:16:41;;;;;;;1.08;0.10;;;28.60;44.30;;;;;;5048731;28;20047;-72
2022/09/09 11:19:17;;;;;;;0.95;0.10;;;28.70;44.20;;;;;;5051811;28;20044;-68
2022/09/09 11:21:47;;;;;;;0.38;0.10;;;28.70;44.60;;;;;;5050318;28;20124;-72
2022/09/09 11:24:22;;;;;;;0.90;0.10;;;28.80;43.90;;;;;;5048325;28;20509;-64
2022/09/09 11:26:54;;;;;;;1.20;0.10;;;28.90;43.70;;;;;;5055489;28;20037;-68
2022/09/09 11:29:47;;;;;;;1.10;0.05;;;28.90;43.30;;;;;;5048721;28;20053;-63
2022/09/09 11:32:29;;;;;;;0.43;0.00;;;29.20;43.10;;;;;;5040608;28;20088;-70
2022/09/09 11:35:06;;;;;;;2.95;0.10;;;29.20;43.00;;;;;;5047180;28;20414;-68
2022/09/09 11:37:55;;;;;;;1.23;0.10;;;29.30;42.90;;;;;;5047970;28;20522;-71
2022/09/09 11:40:25;;;;;;;0.38;0.10;;;29.40;42.30;;;;;;5050769;28;20531;-70
2022/09/09 11:43:04;;;;;;;1.35;0.10;;;29.50;42.40;;;;;;5030322;28;20124;-66
2022/09/09 11:45:35;;;;;;;0.40;0.10;;;29.60;42.50;;;;;;5048926;28;20045;-65
2022/09/09 11:48:05;;;;;;;0.80;0.10;;;29.50;42.50;;;;;;5048346;28;20130;-64
2022/09/09 11:50:35;;;;;;;3.15;0.50;;;29.60;42.40;;;;;;5047648;28;20506;-69
2022/09/09 11:53:23;;;;;;;0.30;0.00;;;29.60;42.20;;;;;;5047385;28;20041;-70
2022/09/09 11:56:09;;;;;;;2.25;0.10;;;29.60;42.00;;;;;;5052303;28;20044;-70
2022/09/09 11:58:42;;;;;;;0.30;0.08;;;29.70;42.00;;;;;;5047341;28;20055;-66
2022/09/09 12:01:31;;;;;;;0.50;0.00;;;29.70;42.10;;;;;;5048222;28;20049;-64
2022/09/09 12:04:21;;;;;;;0.65;0.65;;;29.90;42.20;;;;;;5051021;28;20467;-64
2022/09/09 12:06:53;;;;;;;1.08;0.25;;;30.10;42.10;;;;;;5040883;28;20045;-65
2022/09/09 12:09:29;;;;;;;0.82;0.73;;;30.20;41.70;;;;;;5046368;28;20081;-69
2022/09/09 12:12:07;;;;;;;3.33;0.05;;;30.40;41.50;;;;;;5045345;28;20041;-66
2022/09/09 12:14:44;;;;;;;0.38;0.25;;;30.40;41.30;;;;;;5041820;28;20083;-66
2022/09/09 12:17:20;;;;;;;0.68;0.15;;;30.50;41.20;;;;;;5048483;28;20037;-66
2022/09/09 12:19:48;;;;;;;1.08;0.20;;;30.50;41.00;;;;;;5045897;28;20774;-66
2022/09/09 12:22:27;;;;;;;1.58;0.20;;;30.40;41.00;;;;;;5053278;28;20063;-67
2022/09/09 12:25:01;;;;;;;0.43;0.10;;;30.40;41.10;;;;;;5053129;28;20108;-67
2022/09/09 12:27:34;;;;;;;0.80;0.10;;;30.20;41.10;;;;;;5048989;28;20472;-67
2022/09/09 12:30:09;;;;;;;1.13;0.10;;;30.10;41.30;;;;;;5048048;28;20536;-65
2022/09/09 12:32:38;;;;;;;1.25;0.10;;;30.10;41.60;;;;;;5048629;28;20041;-66
2022/09/09 12:35:10;;;;;;;1.65;0.00;;;30.00;41.70;;;;;;5051051;28;20037;-66
2022/09/09 12:37:40;;;;;;;1.75;0.00;;;30.00;41.90;;;;;;5048544;28;20045;-67
2022/09/09 12:40:21;;;;;;;0.45;0.20;;;29.90;42.00;;;;;;5043209;28;20046;-67
2022/09/09 12:42:48;;;;;;;1.50;0.20;;;29.90;42.10;;;;;;5025857;28;20103;-67
2022/09/09 12:45:20;;;;;;;1.67;0.52;;;29.80;42.20;;;;;;5053905;28;20033;-66
2022/09/09 12:47:54;;;;;;;0.10;0.00;;;29.70;42.30;;;;;;5027858;28;20087;-65
2022/09/09 12:50:24;;;;;;;0.30;0.10;;;29.60;42.40;;;;;;5047661;28;20049;-66
2022/09/09 12:52:54;;;;;;;1.48;0.25;;;29.50;42.50;;;;;;5050086;28;20788;-64
2022/09/09 12:55:24;;;;;;;0.68;0.05;;;29.50;42.70;;;;;;5051241;28;20045;-66
2022/09/09 12:57:52;;;;;;;3.15;0.20;;;29.30;42.70;;;;;;5052035;28;20044;-65
2022/09/09 13:00:22;;;;;;;1.23;0.10;;;29.30;42.90;;;;;;5049451;28;20036;-65
2022/09/09 13:02:54;;;;;;;1.85;0.73;;;29.20;43.10;;;;;;5050810;28;20044;-66
2022/09/09 13:05:24;;;;;;;1.27;0.03;;;29.20;43.30;;;;;;5054339;28;20094;-66
2022/09/09 13:07:52;;;;;;;2.92;0.10;;;29.10;43.50;;;;;;5053519;28;20120;-66
2022/09/09 13:10:27;;;;;;;1.40;0.10;;;29.00;43.60;;;;;;5054728;28;20037;-66
2022/09/09 13:12:54;;;;;;;2.47;0.10;;;29.00;43.80;;;;;;5050895;28;20045;-66
2022/09/09 13:15:24;;;;;;;3.20;0.60;;;28.90;44.00;;;;;;5051356;28;20044;-66
2022/09/09 13:17:55;;;;;;;0.57;0.38;;;28.80;44.10;;;;;;5050982;28;20044;-67
2022/09/09 13:20:24;;;;;;;2.38;0.57;;;28.80;44.30;;;;;;5050230;28;20127;-66